Time;durP1;ratioP1;P1;durP2;ratioP2;P2;SDS_P1;SDS_P2;PMS_P1;PMS_P2;Temp;Humidity;BMP_temperature;BMP_pressure;BME280_temperature;BME280_humidity;BME280_pressure;Samples;Min_cycle;Max_cycle;Signal;HPM_P1;HPM_P2
2021/06/04 00:02:11;;;;;;;3.80;3.13;;;22.70;99.90;;;;;;5044030;28;20021;-93
2021/06/04 00:04:37;;;;;;;5.85;3.53;;;22.20;99.90;;;;;;5056343;28;20040;-94
2021/06/04 00:07:07;;;;;;;3.78;3.20;;;22.20;99.90;;;;;;5073830;28;20029;-95
2021/06/04 00:09:35;;;;;;;4.68;3.45;;;22.10;99.90;;;;;;5071590;28;20040;-94
2021/06/04 00:12:02;;;;;;;3.40;3.10;;;22.10;99.90;;;;;;5073548;28;20162;-94
2021/06/04 00:14:35;;;;;;;5.78;3.30;;;22.10;99.90;;;;;;5073912;28;20182;-94
2021/06/04 00:17:06;;;;;;;3.72;3.38;;;22.10;99.90;;;;;;5056201;28;20032;-94
2021/06/04 00:19:34;;;;;;;3.63;3.00;;;22.00;99.90;;;;;;5073551;28;20028;-93
2021/06/04 00:22:03;;;;;;;4.10;3.20;;;22.00;99.90;;;;;;5056028;28;20033;-94
2021/06/04 00:24:29;;;;;;;4.20;2.90;;;22.00;99.90;;;;;;5089166;28;20035;-94
2021/06/04 00:26:54;;;;;;;3.17;2.80;;;22.10;99.90;;;;;;5073653;28;20039;-94
2021/06/04 00:29:22;;;;;;;5.80;3.25;;;22.10;99.90;;;;;;5082804;28;20114;-94
2021/06/04 00:31:50;;;;;;;5.35;3.17;;;22.00;99.90;;;;;;5084826;28;20025;-94
2021/06/04 00:34:16;;;;;;;3.65;3.00;;;21.90;99.90;;;;;;5061723;28;20041;-94
2021/06/04 00:36:43;;;;;;;5.75;3.17;;;21.80;99.90;;;;;;5073171;28;20071;-94
2021/06/04 00:39:10;;;;;;;3.40;3.10;;;21.80;99.90;;;;;;5089277;28;20024;-94
2021/06/04 00:41:46;;;;;;;4.38;2.78;;;21.80;99.90;;;;;;5094198;28;20039;-93
2021/06/04 00:44:12;;;;;;;5.47;2.83;;;21.80;99.90;;;;;;5093358;28;20026;-94
2021/06/04 00:46:39;;;;;;;3.65;2.95;;;21.60;99.90;;;;;;5075943;28;20078;-94
2021/06/04 00:49:06;;;;;;;2.90;2.63;;;21.60;99.90;;;;;;5093838;28;20046;-94
2021/06/04 00:51:40;;;;;;;3.50;2.92;;;21.60;99.90;;;;;;5101378;28;20032;-94
2021/06/04 00:54:08;;;;;;;5.97;3.00;;;21.60;99.90;;;;;;5093453;28;20036;-94
2021/06/04 00:56:36;;;;;;;3.70;2.80;;;21.60;99.90;;;;;;5075390;28;20050;-94
2021/06/04 00:59:03;;;;;;;3.90;2.67;;;21.50;99.90;;;;;;5075674;28;20020;-94
2021/06/04 01:01:32;;;;;;;3.67;2.60;;;21.50;99.90;;;;;;5074479;28;20480;-94
2021/06/04 01:04:11;;;;;;;6.05;2.90;;;21.60;99.90;;;;;;5109017;28;20031;-94
2021/06/04 01:06:43;;;;;;;5.22;2.83;;;21.60;99.90;;;;;;5092618;28;20424;-94
2021/06/04 01:09:21;;;;;;;5.60;2.72;;;21.60;99.90;;;;;;5074869;28;20127;-94
2021/06/04 01:11:56;;;;;;;4.05;2.78;;;21.60;99.90;;;;;;5093888;28;20103;-94
2021/06/04 01:14:44;;;;;;;4.05;2.97;;;21.50;99.90;;;;;;5093309;28;20028;-94
2021/06/04 01:17:43;;;;;;;4.57;2.33;;;21.50;99.90;;;;;;5075228;28;20035;-94
2021/06/04 01:20:12;;;;;;;3.60;2.58;;;21.50;99.90;;;;;;5093483;28;20034;-95
2021/06/04 01:23:15;;;;;;;2.92;2.47;;;21.60;99.90;;;;;;5089094;28;20027;-93
2021/06/04 01:26:05;;;;;;;5.47;2.47;;;21.60;99.90;;;;;;5073401;28;20028;-95
2021/06/04 01:28:33;;;;;;;4.45;2.80;;;21.60;99.90;;;;;;5073120;28;20384;-94
2021/06/04 01:31:14;;;;;;;3.13;2.50;;;21.50;99.90;;;;;;5072925;28;20044;-94
2021/06/04 01:33:50;;;;;;;3.00;2.42;;;21.40;99.90;;;;;;5128404;28;20581;-94
2021/06/04 01:36:20;;;;;;;3.65;2.40;;;21.40;99.90;;;;;;5098903;28;20032;-94
2021/06/04 01:38:47;;;;;;;3.50;2.47;;;21.40;99.90;;;;;;5092203;28;20028;-94
2021/06/04 01:41:15;;;;;;;2.60;2.40;;;21.40;99.90;;;;;;5092943;28;20028;-94
2021/06/04 01:43:48;;;;;;;4.45;2.22;;;21.40;99.90;;;;;;5093775;28;20035;-95
2021/06/04 01:46:33;;;;;;;3.45;2.70;;;21.20;99.90;;;;;;5093225;28;20124;-94
2021/06/04 01:49:12;;;;;;;3.60;2.45;;;21.20;99.90;;;;;;5113860;28;20023;-94
2021/06/04 01:51:45;;;;;;;4.40;2.60;;;21.20;99.90;;;;;;5086815;28;20034;-94
2021/06/04 01:54:40;;;;;;;4.03;2.50;;;21.10;99.90;;;;;;5092689;28;20020;-94
2021/06/04 01:57:12;;;;;;;3.45;2.65;;;21.10;99.90;;;;;;5090902;28;20032;-94
2021/06/04 01:59:41;;;;;;;4.30;2.33;;;21.00;99.90;;;;;;5093362;28;20036;-94
2021/06/04 02:02:09;;;;;;;2.60;2.40;;;20.90;99.90;;;;;;5075432;28;20051;-94
2021/06/04 02:04:38;;;;;;;3.00;2.25;;;20.90;99.90;;;;;;5092278;28;20032;-94
2021/06/04 02:07:08;;;;;;;5.55;2.90;;;21.00;99.90;;;;;;5074743;28;20028;-94
2021/06/04 02:09:34;;;;;;;2.80;2.50;;;20.90;99.90;;;;;;5074991;28;20031;-94
2021/06/04 02:12:00;;;;;;;4.47;2.38;;;20.90;99.90;;;;;;5077974;28;20122;-93
2021/06/04 02:14:39;;;;;;;3.28;2.50;;;20.80;99.90;;;;;;5106637;28;20387;-93
2021/06/04 02:17:24;;;;;;;3.15;2.53;;;20.80;99.90;;;;;;5098591;28;20441;-95
2021/06/04 02:20:00;;;;;;;2.40;2.20;;;20.70;99.90;;;;;;5093818;28;20028;-94
2021/06/04 02:22:51;;;;;;;2.70;2.30;;;20.70;99.90;;;;;;5096284;28;20032;-94
2021/06/04 02:25:31;;;;;;;2.60;2.40;;;20.70;99.90;;;;;;5096309;28;20040;-94
2021/06/04 02:28:05;;;;;;;2.83;2.40;;;20.60;99.90;;;;;;5096455;28;20024;-95
2021/06/04 02:30:44;;;;;;;4.35;2.38;;;20.60;99.90;;;;;;5096339;28;20059;-94
2021/06/04 02:33:23;;;;;;;5.03;2.47;;;20.50;99.90;;;;;;5095734;28;20066;-94
2021/06/04 02:35:58;;;;;;;4.05;2.50;;;20.50;99.90;;;;;;5095994;28;20634;-94
2021/06/04 02:38:28;;;;;;;3.63;2.30;;;20.60;99.90;;;;;;5096243;28;20031;-94
2021/06/04 02:41:01;;;;;;;2.70;2.50;;;20.50;99.90;;;;;;5096024;28;20059;-95
2021/06/04 02:43:41;;;;;;;3.35;2.50;;;20.40;99.90;;;;;;5097184;28;20098;-94
2021/06/04 02:46:39;;;;;;;2.50;2.30;;;20.40;99.90;;;;;;5077935;28;20131;-95
2021/06/04 02:49:09;;;;;;;3.78;2.85;;;20.40;99.90;;;;;;5049528;28;20036;-93
2021/06/04 02:51:43;;;;;;;5.05;2.35;;;20.40;99.90;;;;;;5074993;28;20093;-94
2021/06/04 02:54:18;;;;;;;3.10;2.70;;;20.40;99.90;;;;;;5095763;28;20027;-94
2021/06/04 02:56:49;;;;;;;3.58;2.60;;;20.40;99.90;;;;;;5077733;28;20400;-94
2021/06/04 02:59:27;;;;;;;2.47;2.28;;;20.40;99.90;;;;;;5095338;28;20035;-94
2021/06/04 03:02:10;;;;;;;3.88;3.00;;;20.30;99.90;;;;;;5095523;28;20028;-94
2021/06/04 03:04:42;;;;;;;3.05;2.75;;;20.20;99.90;;;;;;5097946;28;20031;-94
2021/06/04 03:07:12;;;;;;;3.90;2.90;;;20.10;99.90;;;;;;5116336;28;20046;-94
2021/06/04 03:09:42;;;;;;;6.05;2.30;;;20.20;99.90;;;;;;5077235;28;20028;-94
2021/06/04 03:12:25;;;;;;;4.45;2.30;;;20.10;99.90;;;;;;5084523;28;20028;-93
2021/06/04 03:14:52;;;;;;;2.65;2.35;;;20.10;99.90;;;;;;5095801;28;20024;-94
2021/06/04 03:17:21;;;;;;;5.03;2.35;;;20.10;99.90;;;;;;5095135;28;20507;-94
2021/06/04 03:19:47;;;;;;;2.95;1.98;;;20.10;99.90;;;;;;5094910;28;20103;-94
2021/06/04 03:22:22;;;;;;;3.90;2.35;;;20.10;99.90;;;;;;5094966;28;20085;-94
2021/06/04 03:24:48;;;;;;;3.33;2.45;;;20.10;99.90;;;;;;5074420;28;21177;-94
2021/06/04 03:27:16;;;;;;;4.05;2.55;;;20.20;99.90;;;;;;5074627;28;20429;-94
2021/06/04 03:29:42;;;;;;;3.20;2.40;;;20.20;99.90;;;;;;5086046;28;20127;-95
2021/06/04 03:32:12;;;;;;;3.60;2.45;;;20.20;99.90;;;;;;5092545;28;20040;-94
2021/06/04 03:34:39;;;;;;;2.72;2.53;;;20.30;99.90;;;;;;5074256;28;20481;-94
2021/06/04 03:37:05;;;;;;;2.30;2.10;;;20.30;99.90;;;;;;5074843;28;20075;-94
2021/06/04 03:39:38;;;;;;;3.35;2.45;;;20.30;99.90;;;;;;5056628;28;20028;-95
2021/06/04 03:42:06;;;;;;;3.63;2.25;;;20.30;99.90;;;;;;5058132;28;20027;-94
2021/06/04 03:44:34;;;;;;;2.60;2.30;;;20.20;99.90;;;;;;5067983;28;20024;-95
2021/06/04 03:47:01;;;;;;;4.22;2.33;;;20.20;99.90;;;;;;5089005;28;20032;-94
2021/06/04 03:49:28;;;;;;;2.60;2.33;;;20.20;99.90;;;;;;5073820;28;20397;-94
2021/06/04 03:51:57;;;;;;;3.45;2.28;;;20.20;99.90;;;;;;5056915;28;20107;-93
2021/06/04 03:54:30;;;;;;;3.95;2.28;;;20.20;99.90;;;;;;5074543;28;20115;-94
2021/06/04 03:56:57;;;;;;;4.10;2.55;;;20.10;99.90;;;;;;5073877;28;20033;-93
2021/06/04 03:59:23;;;;;;;3.00;2.70;;;20.00;99.90;;;;;;5074212;28;20029;-94
2021/06/04 04:01:54;;;;;;;2.65;2.28;;;19.90;99.90;;;;;;5073893;28;20151;-95
2021/06/04 04:04:20;;;;;;;3.60;2.25;;;19.90;99.90;;;;;;5073744;28;20045;-94
2021/06/04 04:06:46;;;;;;;3.85;2.58;;;19.90;99.90;;;;;;5056502;28;20043;-94
2021/06/04 04:09:12;;;;;;;3.55;2.20;;;19.90;99.90;;;;;;5073640;28;20024;-94
2021/06/04 04:11:39;;;;;;;4.07;2.35;;;19.90;99.90;;;;;;5047347;28;20096;-94
2021/06/04 04:14:07;;;;;;;2.63;2.40;;;20.00;99.90;;;;;;5060795;28;20020;-94
2021/06/04 04:16:33;;;;;;;3.38;2.42;;;19.90;99.90;;;;;;5056365;28;20027;-94
2021/06/04 04:18:58;;;;;;;4.00;2.20;;;20.00;99.90;;;;;;5056053;28;20374;-95
2021/06/04 04:21:25;;;;;;;3.30;2.33;;;19.90;99.90;;;;;;5055996;28;20036;-95
2021/06/04 04:23:55;;;;;;;4.20;2.60;;;19.80;99.90;;;;;;5068949;28;20069;-94
2021/06/04 04:26:30;;;;;;;2.65;2.45;;;19.70;99.90;;;;;;5084360;28;20025;-95
2021/06/04 04:28:56;;;;;;;2.90;2.58;;;19.80;99.90;;;;;;5055900;28;20032;-94
2021/06/04 04:31:29;;;;;;;8.32;2.50;;;19.70;99.90;;;;;;5073253;28;20032;-94
2021/06/04 04:33:57;;;;;;;4.28;2.47;;;19.80;99.90;;;;;;5055632;28;20127;-95
2021/06/04 04:36:28;;;;;;;3.35;2.50;;;19.80;99.90;;;;;;5073016;28;20032;-93
2021/06/04 04:38:54;;;;;;;2.85;2.22;;;19.70;99.90;;;;;;5073602;28;20020;-94
2021/06/04 04:41:20;;;;;;;5.22;2.70;;;19.70;99.90;;;;;;5073531;28;20512;-94
2021/06/04 04:43:50;;;;;;;3.53;2.60;;;19.70;99.90;;;;;;5075179;28;20029;-94
2021/06/04 04:46:18;;;;;;;3.10;2.60;;;19.60;99.90;;;;;;5056217;28;20032;-94
2021/06/04 04:48:45;;;;;;;3.25;2.03;;;19.60;99.90;;;;;;5055753;28;20042;-95
2021/06/04 04:51:14;;;;;;;4.55;2.63;;;19.60;99.90;;;;;;5055945;28;20036;-95
2021/06/04 04:53:39;;;;;;;2.90;2.05;;;19.70;99.90;;;;;;5071393;28;20028;-94
2021/06/04 04:56:06;;;;;;;4.43;2.40;;;19.70;99.90;;;;;;5073603;28;20031;-92
2021/06/04 05:01:10;;;;;;;2.63;2.25;;;19.70;99.90;;;;;;5410728;22;20040;-96
2021/06/04 05:03:36;;;;;;;3.33;2.38;;;19.80;99.90;;;;;;5087606;28;20112;-96
2021/06/04 05:08:41;;;;;;;2.80;2.60;;;19.80;99.90;;;;;;5490023;23;19921;-96
2021/06/04 05:11:14;;;;;;;8.52;3.10;;;19.70;99.90;;;;;;5353833;22;20045;-96
2021/06/04 05:13:41;;;;;;;2.55;2.35;;;19.80;99.90;;;;;;5033485;22;20053;-96
2021/06/04 05:16:07;;;;;;;4.72;2.78;;;19.90;99.90;;;;;;5023897;28;20034;-95
2021/06/04 05:18:35;;;;;;;2.85;2.50;;;19.80;99.90;;;;;;5015179;28;20033;-96
2021/06/04 05:21:02;;;;;;;4.43;2.40;;;19.90;99.90;;;;;;4997726;28;20022;-92
2021/06/04 05:23:27;;;;;;;3.70;2.20;;;19.90;99.90;;;;;;5014760;28;20054;-96
2021/06/04 05:25:54;;;;;;;3.30;2.30;;;19.90;99.90;;;;;;5013260;28;20092;-92
2021/06/04 05:28:23;;;;;;;5.88;2.38;;;20.00;99.90;;;;;;5012588;28;20022;-93
2021/06/04 05:30:53;;;;;;;3.00;2.42;;;20.10;99.90;;;;;;4992676;28;20030;-95
2021/06/04 05:33:23;;;;;;;5.10;2.60;;;20.10;99.90;;;;;;4991872;28;20018;-93
2021/06/04 05:35:49;;;;;;;4.80;2.30;;;20.20;99.90;;;;;;5013497;28;20029;-94
2021/06/04 05:38:16;;;;;;;4.50;2.35;;;20.20;99.90;;;;;;5012799;28;20020;-95
2021/06/04 05:40:46;;;;;;;2.78;2.30;;;20.20;99.90;;;;;;5014197;28;20038;-93
2021/06/04 05:43:15;;;;;;;4.03;2.25;;;20.20;99.90;;;;;;4994860;28;20050;-94
2021/06/04 05:45:43;;;;;;;3.08;2.55;;;20.20;99.90;;;;;;5016209;28;20049;-93
2021/06/04 05:48:12;;;;;;;4.68;2.60;;;20.30;99.90;;;;;;4999534;28;20495;-93
2021/06/04 05:50:41;;;;;;;3.78;2.38;;;20.30;99.90;;;;;;5017103;28;20044;-94
2021/06/04 05:53:09;;;;;;;5.22;2.95;;;20.40;99.90;;;;;;5016326;28;20514;-93
2021/06/04 05:55:36;;;;;;;4.70;2.55;;;20.40;99.90;;;;;;4998066;28;20490;-93
2021/06/04 05:58:07;;;;;;;4.32;2.70;;;20.40;99.90;;;;;;4998343;28;20510;-93
2021/06/04 06:00:41;;;;;;;3.80;2.80;;;20.40;99.90;;;;;;4997637;28;20033;-93
2021/06/04 06:03:09;;;;;;;4.20;2.50;;;20.40;99.90;;;;;;5017985;28;20040;-95
2021/06/04 06:05:35;;;;;;;2.83;2.40;;;20.40;99.90;;;;;;4999844;28;20125;-91
2021/06/04 06:08:01;;;;;;;4.22;2.50;;;20.50;99.90;;;;;;5000175;28;20115;-95
2021/06/04 06:10:26;;;;;;;4.78;2.78;;;20.50;99.90;;;;;;4999629;28;20034;-92
2021/06/04 06:12:54;;;;;;;3.22;2.60;;;20.50;99.90;;;;;;4998478;28;20040;-89
2021/06/04 06:15:22;;;;;;;2.55;1.95;;;20.60;99.90;;;;;;5014307;28;20058;-89
2021/06/04 06:17:49;;;;;;;3.67;2.15;;;20.60;99.90;;;;;;5015521;28;20034;-89
2021/06/04 06:20:17;;;;;;;3.88;2.38;;;20.60;99.90;;;;;;5013895;28;20053;-89
2021/06/04 06:22:43;;;;;;;3.28;2.20;;;20.70;99.90;;;;;;4981125;28;20025;-89
2021/06/04 06:25:15;;;;;;;2.55;1.92;;;20.70;99.90;;;;;;4997021;28;20038;-90
2021/06/04 06:27:42;;;;;;;2.50;2.30;;;20.80;99.90;;;;;;5014384;28;20030;-89
2021/06/04 06:30:13;;;;;;;2.75;1.95;;;20.80;99.90;;;;;;5014876;28;20029;-89
2021/06/04 06:32:38;;;;;;;3.20;2.30;;;20.80;99.90;;;;;;5014579;28;20030;-89
2021/06/04 06:35:05;;;;;;;3.22;2.22;;;20.90;99.90;;;;;;5013816;28;20030;-89
2021/06/04 06:37:31;;;;;;;3.55;2.28;;;20.90;99.90;;;;;;5013474;28;20057;-89
2021/06/04 06:39:56;;;;;;;3.10;2.50;;;20.90;99.90;;;;;;5014167;28;20088;-89
2021/06/04 06:42:22;;;;;;;3.10;2.70;;;20.90;99.90;;;;;;5013477;28;20030;-89
2021/06/04 06:44:48;;;;;;;3.80;2.40;;;20.90;99.90;;;;;;4996712;28;20073;-89
2021/06/04 06:47:13;;;;;;;4.47;2.40;;;21.00;99.90;;;;;;5013766;28;20025;-89
2021/06/04 06:49:39;;;;;;;3.00;2.40;;;21.10;99.90;;;;;;5013501;28;20033;-89
2021/06/04 06:52:09;;;;;;;7.78;2.55;;;21.20;99.90;;;;;;4996573;28;20067;-89
2021/06/04 06:54:35;;;;;;;2.55;2.30;;;21.30;99.90;;;;;;4995637;28;20077;-89
2021/06/04 06:57:02;;;;;;;4.05;2.88;;;21.40;99.90;;;;;;5013125;28;20037;-89
2021/06/04 06:59:29;;;;;;;6.68;2.60;;;21.40;99.90;;;;;;5012570;28;20033;-88
2021/06/04 07:02:00;;;;;;;3.80;2.33;;;21.50;99.90;;;;;;5013054;28;20034;-89
2021/06/04 07:04:26;;;;;;;2.50;2.30;;;21.50;99.90;;;;;;5013172;28;20034;-89
2021/06/04 07:06:52;;;;;;;4.75;2.65;;;21.50;99.90;;;;;;5013905;28;20041;-89
2021/06/04 07:09:18;;;;;;;3.45;2.70;;;21.40;99.90;;;;;;4995860;28;20483;-89
2021/06/04 07:11:52;;;;;;;3.40;2.83;;;21.50;99.90;;;;;;5012476;28;20039;-89
2021/06/04 07:14:21;;;;;;;3.40;2.72;;;21.50;99.90;;;;;;5012517;28;20045;-89
2021/06/04 07:16:46;;;;;;;7.18;3.05;;;21.50;99.90;;;;;;5012898;28;20033;-89
2021/06/04 07:19:12;;;;;;;4.68;2.70;;;21.60;99.90;;;;;;5013619;28;20033;-89
2021/06/04 07:21:40;;;;;;;2.72;2.40;;;21.60;99.90;;;;;;4995755;28;20030;-89
2021/06/04 07:24:13;;;;;;;3.78;2.70;;;21.80;99.90;;;;;;5013078;28;20505;-89
2021/06/04 07:26:40;;;;;;;4.30;3.13;;;21.70;99.90;;;;;;5012209;28;20038;-89
2021/06/04 07:29:05;;;;;;;4.65;3.47;;;21.80;99.90;;;;;;5013162;28;20033;-89
2021/06/04 07:31:31;;;;;;;3.40;3.10;;;21.90;99.90;;;;;;5012879;28;20029;-89
2021/06/04 07:33:57;;;;;;;5.57;2.70;;;22.00;99.90;;;;;;4995433;28;20026;-89
2021/06/04 07:36:29;;;;;;;5.07;2.92;;;22.10;99.90;;;;;;5013084;28;20033;-89
2021/06/04 07:38:57;;;;;;;5.30;2.63;;;22.20;99.90;;;;;;5012633;28;20030;-90
2021/06/04 07:41:23;;;;;;;3.65;3.10;;;22.30;99.90;;;;;;5011655;28;20037;-89
2021/06/04 07:43:48;;;;;;;3.17;2.50;;;22.30;99.90;;;;;;5012364;28;20095;-89
2021/06/04 07:46:16;;;;;;;3.90;2.72;;;22.40;99.90;;;;;;5012804;28;20049;-89
2021/06/04 07:48:42;;;;;;;3.03;2.72;;;22.50;99.90;;;;;;4995285;28;20061;-90
2021/06/04 07:51:14;;;;;;;3.28;2.60;;;22.50;99.90;;;;;;5012892;28;20064;-89
2021/06/04 07:53:40;;;;;;;4.05;3.00;;;22.50;99.90;;;;;;5012122;28;20040;-89
2021/06/04 07:56:07;;;;;;;3.78;2.65;;;22.50;99.90;;;;;;5011743;28;20486;-89
2021/06/04 07:58:33;;;;;;;3.28;2.97;;;22.60;99.90;;;;;;5012328;28;20391;-89
2021/06/04 08:01:02;;;;;;;4.90;2.95;;;22.70;99.90;;;;;;5012380;28;20037;-89
2021/06/04 08:03:28;;;;;;;4.35;2.90;;;22.70;99.90;;;;;;5012334;28;20026;-89
2021/06/04 08:05:55;;;;;;;4.90;3.03;;;23.00;99.90;;;;;;5012277;28;20410;-89
2021/06/04 08:08:22;;;;;;;3.47;2.83;;;23.10;99.90;;;;;;5012262;28;20096;-89
2021/06/04 08:10:48;;;;;;;3.75;2.80;;;23.20;99.90;;;;;;5011558;28;20033;-89
2021/06/04 08:13:15;;;;;;;3.67;2.75;;;23.20;99.90;;;;;;5012723;28;20018;-88
2021/06/04 08:15:56;;;;;;;4.85;3.17;;;23.20;99.90;;;;;;5011818;28;20038;-89
2021/06/04 08:18:24;;;;;;;4.03;2.75;;;23.20;99.90;;;;;;5011884;28;20025;-89
2021/06/04 08:20:50;;;;;;;3.22;2.90;;;23.40;99.90;;;;;;5012336;28;20030;-89
2021/06/04 08:23:22;;;;;;;5.32;3.40;;;23.50;99.90;;;;;;5011426;28;20044;-89
2021/06/04 08:25:50;;;;;;;3.08;2.88;;;23.30;99.90;;;;;;5026795;28;20125;-89
2021/06/04 08:28:17;;;;;;;4.50;3.10;;;23.40;99.90;;;;;;5012284;28;20363;-89
2021/06/04 08:30:45;;;;;;;4.97;3.00;;;23.40;99.90;;;;;;5012291;28;20041;-88
2021/06/04 08:33:11;;;;;;;4.97;2.83;;;23.50;99.90;;;;;;5011760;28;20026;-89
2021/06/04 08:35:38;;;;;;;6.97;3.13;;;23.70;99.90;;;;;;4993626;28;20501;-89
2021/06/04 08:38:05;;;;;;;4.80;3.03;;;23.80;99.90;;;;;;5011339;28;20037;-89
2021/06/04 08:40:34;;;;;;;4.55;3.17;;;23.90;99.90;;;;;;4993947;28;20026;-90
2021/06/04 08:43:26;;;;;;;5.22;3.20;;;23.90;99.90;;;;;;5012034;28;20022;-89
2021/06/04 08:46:17;;;;;;;3.55;2.70;;;24.00;99.90;;;;;;5011625;28;20128;-88
2021/06/04 08:48:50;;;;;;;3.28;2.97;;;24.00;99.90;;;;;;5011800;28;20120;-89
2021/06/04 08:51:22;;;;;;;4.60;3.28;;;24.20;99.90;;;;;;4994047;28;20036;-88
2021/06/04 08:53:54;;;;;;;3.42;3.03;;;24.40;99.90;;;;;;5010874;28;20021;-89
2021/06/04 08:56:26;;;;;;;3.85;2.90;;;24.30;99.90;;;;;;5011217;28;20064;-88
2021/06/04 08:59:10;;;;;;;5.47;3.10;;;24.30;99.90;;;;;;4993067;28;20080;-89
2021/06/04 09:02:03;;;;;;;4.07;2.67;;;24.20;99.90;;;;;;4993285;28;20041;-89
2021/06/04 09:04:36;;;;;;;3.35;2.60;;;24.20;99.90;;;;;;5009597;28;20557;-89
2021/06/04 09:07:26;;;;;;;2.75;2.55;;;24.20;99.90;;;;;;5010315;28;20033;-89
2021/06/04 09:10:04;;;;;;;5.22;2.67;;;24.10;99.90;;;;;;5026469;28;20483;-88
2021/06/04 09:12:48;;;;;;;2.67;2.47;;;24.30;99.90;;;;;;5011544;28;20067;-88
2021/06/04 09:15:16;;;;;;;4.70;3.05;;;24.30;99.90;;;;;;5010724;28;20049;-88
2021/06/04 09:17:50;;;;;;;4.45;2.95;;;24.20;99.90;;;;;;5010950;28;20372;-88
2021/06/04 09:20:30;;;;;;;4.13;2.63;;;24.40;99.90;;;;;;5011191;28;20033;-87
2021/06/04 09:23:02;;;;;;;5.43;2.97;;;24.40;99.90;;;;;;4982879;28;20589;-89
2021/06/04 09:25:30;;;;;;;4.38;2.72;;;24.70;99.90;;;;;;5014975;28;20503;-89
2021/06/04 09:28:11;;;;;;;5.93;2.88;;;24.80;99.90;;;;;;5012253;28;20033;-88
2021/06/04 09:30:45;;;;;;;3.20;2.55;;;25.20;99.90;;;;;;5029891;28;20038;-89
2021/06/04 09:33:13;;;;;;;4.05;2.90;;;25.70;99.90;;;;;;5014544;28;20026;-88
2021/06/04 09:36:13;;;;;;;2.85;2.60;;;26.10;99.90;;;;;;5029654;28;20108;-89
2021/06/04 09:39:21;;;;;;;5.28;3.50;;;26.50;99.90;;;;;;5013812;28;20045;-89
2021/06/04 09:41:48;;;;;;;3.22;2.92;;;26.90;99.90;;;;;;4973390;28;20038;-87
2021/06/04 09:44:19;;;;;;;7.45;3.00;;;26.60;99.90;;;;;;4973193;28;20035;-89
2021/06/04 09:47:11;;;;;;;3.33;2.80;;;26.20;99.90;;;;;;4973909;28;20035;-88
2021/06/04 09:49:46;;;;;;;4.53;2.83;;;26.50;99.90;;;;;;4972254;28;20035;-88
2021/06/04 09:52:35;;;;;;;4.60;3.10;;;26.20;99.90;;;;;;4969842;28;20471;-89
2021/06/04 09:55:24;;;;;;;3.03;2.53;;;25.60;99.90;;;;;;4974085;28;20031;-89
2021/06/04 09:58:14;;;;;;;2.92;2.67;;;25.60;99.90;;;;;;4963533;28;20558;-89
2021/06/04 10:00:54;;;;;;;3.67;2.90;;;25.70;99.90;;;;;;4973352;28;20027;-88
2021/06/04 10:03:39;;;;;;;3.15;2.80;;;25.90;99.90;;;;;;4973220;28;20074;-88
2021/06/04 10:06:08;;;;;;;3.10;2.78;;;26.00;99.90;;;;;;4972151;28;20074;-88
2021/06/04 10:08:45;;;;;;;4.88;3.60;;;25.90;99.90;;;;;;4972704;28;20069;-90
2021/06/04 10:11:21;;;;;;;3.10;2.85;;;25.70;99.90;;;;;;4972585;28;20128;-88
2021/06/04 10:14:16;;;;;;;3.05;2.75;;;25.90;99.90;;;;;;4972579;28;20038;-88
2021/06/04 10:19:49;;;;;;;4.30;2.95;;;26.30;99.90;;;;;;4998354;28;20053;-89
2021/06/04 10:22:21;;;;;;;3.35;3.05;;;26.40;99.90;;;;;;5014750;28;20560;-89
2021/06/04 10:24:50;;;;;;;4.75;3.30;;;26.50;99.90;;;;;;5013179;28;20034;-88
2021/06/04 10:27:25;;;;;;;5.15;2.72;;;26.80;99.90;;;;;;5014255;28;20030;-88
2021/06/04 10:30:31;;;;;;;4.38;3.17;;;27.00;99.90;;;;;;5013692;28;20025;-89
2021/06/04 10:33:11;;;;;;;5.10;3.70;;;26.80;99.90;;;;;;4970847;28;20043;-87
2021/06/04 10:35:45;;;;;;;3.17;2.78;;;27.10;99.90;;;;;;4972147;28;20118;-88
2021/06/04 10:38:27;;;;;;;3.30;3.00;;;26.80;99.90;;;;;;4972334;28;20521;-88
2021/06/04 10:40:59;;;;;;;4.47;3.10;;;27.00;99.90;;;;;;4972265;28;20039;-89
2021/06/04 10:43:25;;;;;;;3.80;2.78;;;27.20;99.90;;;;;;4972224;28;20515;-88
2021/06/04 10:46:00;;;;;;;4.43;3.00;;;27.50;99.90;;;;;;4973071;28;20046;-88
2021/06/04 10:48:40;;;;;;;3.25;2.95;;;27.90;99.90;;;;;;4971479;28;20039;-87
2021/06/04 10:51:17;;;;;;;3.97;2.80;;;28.10;99.90;;;;;;4972485;28;20117;-88
2021/06/04 10:53:59;;;;;;;5.25;3.05;;;27.80;99.90;;;;;;4972627;28;20062;-88
2021/06/04 10:56:30;;;;;;;5.35;2.80;;;27.80;99.90;;;;;;4972518;28;20038;-88
2021/06/04 10:59:03;;;;;;;3.78;2.90;;;28.00;99.90;;;;;;4972201;28;20109;-88
2021/06/04 11:01:42;;;;;;;3.35;2.83;;;27.70;99.90;;;;;;4972212;28;20043;-88
2021/06/04 11:04:25;;;;;;;3.10;2.80;;;28.20;99.90;;;;;;4980844;28;20065;-88
2021/06/04 11:07:06;;;;;;;3.38;3.00;;;28.60;99.90;;;;;;4971841;28;20094;-88
2021/06/04 11:09:58;;;;;;;3.08;2.78;;;29.10;99.90;;;;;;5008665;28;20453;-88
2021/06/04 11:12:54;;;;;;;4.07;2.78;;;29.10;99.90;;;;;;5013104;28;20479;-88
2021/06/04 11:15:48;;;;;;;4.55;2.92;;;28.70;99.90;;;;;;5012885;28;20107;-88
2021/06/04 11:18:29;;;;;;;4.90;2.80;;;29.20;99.90;;;;;;5012594;28;20459;-88
2021/06/04 11:20:58;;;;;;;3.08;2.78;;;28.90;99.90;;;;;;4995011;28;20037;-88
2021/06/04 11:23:48;;;;;;;4.10;2.58;;;28.70;99.90;;;;;;5013172;28;20096;-88
2021/06/04 11:26:20;;;;;;;2.97;2.67;;;28.20;99.90;;;;;;5027994;28;20041;-88
2021/06/04 11:28:51;;;;;;;3.10;2.47;;;27.90;99.90;;;;;;4997378;28;20025;-88
2021/06/04 11:31:36;;;;;;;5.10;2.90;;;28.10;99.90;;;;;;5013375;28;20479;-88
2021/06/04 11:34:15;;;;;;;4.20;2.80;;;28.30;99.90;;;;;;5012201;28;20026;-88
2021/06/04 11:36:45;;;;;;;2.65;2.42;;;28.40;99.90;;;;;;5012824;28;20437;-88
2021/06/04 11:39:36;;;;;;;2.88;2.60;;;28.20;99.90;;;;;;5012274;28;20033;-88
2021/06/04 11:42:08;;;;;;;3.28;2.78;;;28.20;99.90;;;;;;5007515;28;20506;-88
2021/06/04 11:44:42;;;;;;;4.85;2.85;;;28.10;99.90;;;;;;5012013;28;20038;-88
2021/06/04 11:47:17;;;;;;;5.20;2.90;;;28.10;99.90;;;;;;5011880;28;20052;-88
2021/06/04 11:49:55;;;;;;;4.55;2.70;;;28.40;99.90;;;;;;4996932;28;20030;-88
2021/06/04 11:52:39;;;;;;;4.00;3.20;;;28.60;99.90;;;;;;5009751;28;20065;-87
2021/06/04 11:55:17;;;;;;;3.17;2.70;;;28.70;99.90;;;;;;5012680;28;20042;-88
2021/06/04 11:57:59;;;;;;;3.75;2.65;;;28.70;99.90;;;;;;5012077;28;20026;-88
2021/06/04 12:00:24;;;;;;;2.90;2.45;;;28.90;99.90;;;;;;5012035;28;20058;-88
2021/06/04 12:02:57;;;;;;;3.10;2.80;;;29.00;99.90;;;;;;5011805;28;20467;-88
2021/06/04 12:05:33;;;;;;;3.50;2.38;;;28.80;99.90;;;;;;5027017;28;20041;-88
2021/06/04 12:08:28;;;;;;;6.70;2.80;;;29.80;99.90;;;;;;5012231;28;20390;-88
2021/06/04 12:11:16;;;;;;;4.32;2.90;;;31.40;99.90;;;;;;4997513;28;20030;-88
2021/06/04 12:13:47;;;;;;;5.45;2.90;;;32.30;99.90;;;;;;5011843;28;20140;-88
2021/06/04 12:16:22;;;;;;;3.30;2.63;;;33.50;99.90;;;;;;5008008;28;20126;-88
2021/06/04 12:18:59;;;;;;;3.90;3.05;;;34.40;99.90;;;;;;5012020;28;20180;-88
2021/06/04 12:21:41;;;;;;;3.13;2.53;;;35.70;99.90;;;;;;5011652;28;20037;-88
2021/06/04 12:24:24;;;;;;;4.22;3.10;;;34.90;99.90;;;;;;5011487;28;20034;-88
2021/06/04 12:27:00;;;;;;;3.97;3.47;;;35.80;99.90;;;;;;5011880;28;20056;-88
2021/06/04 12:29:26;;;;;;;3.13;2.60;;;35.70;99.90;;;;;;5011843;28;20080;-88
2021/06/04 12:32:11;;;;;;;2.70;2.50;;;34.90;99.90;;;;;;5011643;28;20092;-88
2021/06/04 12:34:37;;;;;;;4.85;2.50;;;35.60;99.90;;;;;;5011420;28;20060;-88
2021/06/04 12:37:17;;;;;;;4.05;2.67;;;34.50;99.90;;;;;;5012333;28;20029;-88
2021/06/04 12:40:22;;;;;;;2.88;2.55;;;34.50;99.90;;;;;;5011324;28;20033;-88
2021/06/04 12:43:02;;;;;;;3.05;2.67;;;34.80;99.90;;;;;;4970197;28;20094;-88
2021/06/04 12:45:33;;;;;;;3.30;2.60;;;34.40;99.90;;;;;;4969462;28;20054;-88
2021/06/04 12:48:23;;;;;;;4.90;2.65;;;34.30;99.90;;;;;;4969752;28;20093;-88
2021/06/04 12:50:57;;;;;;;3.28;2.72;;;35.20;99.90;;;;;;4970347;28;20035;-88
2021/06/04 12:53:27;;;;;;;4.30;2.53;;;35.20;99.90;;;;;;4970172;28;20051;-87
2021/06/04 12:56:09;;;;;;;3.08;2.53;;;33.70;99.90;;;;;;4969829;28;20097;-88
2021/06/04 12:58:39;;;;;;;3.35;2.50;;;31.40;99.90;;;;;;4969699;28;20022;-88
2021/06/04 13:01:07;;;;;;;5.40;2.60;;;33.30;99.90;;;;;;4970412;28;20047;-88
2021/06/04 13:03:37;;;;;;;5.70;2.65;;;34.40;99.90;;;;;;4970507;28;20038;-89
2021/06/04 13:06:04;;;;;;;3.25;2.58;;;34.60;99.90;;;;;;4969658;28;20062;-88
2021/06/04 13:08:36;;;;;;;3.97;2.53;;;35.10;99.90;;;;;;4969920;28;20455;-88
2021/06/04 13:11:05;;;;;;;3.35;2.65;;;34.40;99.90;;;;;;4970419;28;20043;-88
2021/06/04 13:13:35;;;;;;;3.72;2.78;;;33.10;99.90;;;;;;4969526;28;20043;-89
2021/06/04 13:16:23;;;;;;;2.63;2.42;;;32.80;99.90;;;;;;4970473;28;20038;-88
2021/06/04 13:18:50;;;;;;;6.70;3.45;;;32.80;99.90;;;;;;4977819;28;20516;-88
2021/06/04 13:21:33;;;;;;;2.90;2.60;;;32.00;99.90;;;;;;5010811;28;20018;-88
2021/06/04 13:24:02;;;;;;;6.60;2.85;;;31.80;99.90;;;;;;5010879;28;20030;-88
2021/06/04 13:26:34;;;;;;;2.85;2.58;;;31.70;99.90;;;;;;5010917;28;20064;-88